Alvin, Illinois
Current Conditions -  °F | °C
As of 4:15 PM on Friday 24 Oct 2014 (Local Time) from KDNV Reporting Station
Scattered Clouds Scattered Clouds  
Wind Chill: 19°   Ceiling: Unl
Heat Index: 19°   Visibility: 7mi
Dew Point: 11°   Wind: 8mph
Humidity: 59%   Direction: 260°W
Pressure: 29.98"   Gusts: NA
Location:  40.31°N, 87.61°W
Report Text: KDNV 242115Z AUTO 26007KT 7SM SCT043 19/11 A2998 RMK AO2 T01910108
Loading
Personal Weather Stations






























Interactive Weather Map
Tropical Storm Tracking
New forecast layout! Learn more

10-Day Weather Forecast

Advertisements
Track Severe Weather on mobile